Time;durP1;ratioP1;P1;durP2;ratioP2;P2;SDS_P1;SDS_P2;PMS_P1;PMS_P2;Temp;Humidity;BMP_temperature;BMP_pressure;BME280_temperature;BME280_humidity;BME280_pressure;Samples;Min_cycle;Max_cycle;Signal;HPM_P1;HPM_P2
2021/10/13 00:01:28;;;;;;;8.32;6.57;;;8.30;99.90;;;;;;5133849;27;20215;-83
2021/10/13 00:03:55;;;;;;;11.15;5.32;;;8.30;99.90;;;;;;5135239;27;20196;-83
2021/10/13 00:06:24;;;;;;;9.68;6.90;;;8.30;99.90;;;;;;5124269;27;20204;-83
2021/10/13 00:08:51;;;;;;;9.82;5.88;;;8.30;99.90;;;;;;5123777;28;20340;-83
2021/10/13 00:11:24;;;;;;;8.45;6.13;;;8.30;99.90;;;;;;5126812;27;20201;-82
2021/10/13 00:13:56;;;;;;;9.15;6.78;;;8.30;99.90;;;;;;5120516;27;20237;-83
2021/10/13 00:16:24;;;;;;;9.20;6.18;;;8.30;99.90;;;;;;5124116;27;20223;-83
2021/10/13 00:19:03;;;;;;;11.85;6.47;;;8.30;99.90;;;;;;5124609;27;20283;-82
2021/10/13 00:21:34;;;;;;;8.18;5.60;;;8.40;99.90;;;;;;5113830;27;20201;-82
2021/10/13 00:24:09;;;;;;;8.80;5.88;;;8.50;99.90;;;;;;5135437;27;20204;-83
2021/10/13 00:26:46;;;;;;;9.82;5.18;;;8.60;99.90;;;;;;5132963;27;20295;-83
2021/10/13 00:29:42;;;;;;;8.23;5.25;;;8.60;99.90;;;;;;5122039;28;20225;-83
2021/10/13 00:32:09;;;;;;;8.57;5.40;;;8.60;99.90;;;;;;5117301;27;20244;-83
2021/10/13 00:34:36;;;;;;;7.95;4.80;;;8.60;99.90;;;;;;5118918;28;20226;-83
2021/10/13 00:37:14;;;;;;;9.65;5.90;;;8.70;99.90;;;;;;5119070;28;20297;-82
2021/10/13 00:39:41;;;;;;;10.80;5.30;;;8.50;99.90;;;;;;5114734;28;20221;-83
2021/10/13 00:42:08;;;;;;;7.57;4.70;;;8.50;99.90;;;;;;5120276;27;20204;-83
2021/10/13 00:44:49;;;;;;;8.75;6.32;;;8.50;99.90;;;;;;5119304;28;20207;-83
2021/10/13 00:47:19;;;;;;;9.35;5.80;;;8.50;99.90;;;;;;5106993;27;20201;-83
2021/10/13 00:49:51;;;;;;;6.05;5.45;;;8.50;99.90;;;;;;5123184;27;20224;-83
2021/10/13 00:52:27;;;;;;;10.10;6.00;;;8.60;99.90;;;;;;5132269;27;20201;-83
2021/10/13 00:54:58;;;;;;;9.52;5.50;;;8.60;99.90;;;;;;5123829;27;20209;-83
2021/10/13 00:57:25;;;;;;;7.80;5.53;;;8.60;99.90;;;;;;5125374;28;20216;-83
2021/10/13 01:00:12;;;;;;;9.00;5.90;;;8.70;99.90;;;;;;5120985;28;20233;-83
2021/10/13 01:02:53;;;;;;;12.57;6.25;;;8.50;99.90;;;;;;5127022;27;20250;-83
2021/10/13 01:05:54;;;;;;;10.13;6.18;;;8.60;99.90;;;;;;5105000;28;20194;-83
2021/10/13 01:09:00;;;;;;;9.60;6.03;;;8.60;99.90;;;;;;5140377;27;20225;-82
2021/10/13 01:12:13;;;;;;;7.32;6.38;;;8.60;99.90;;;;;;5112137;28;20271;-83
2021/10/13 01:14:51;;;;;;;8.63;5.93;;;8.70;99.90;;;;;;5118441;27;20225;-83
2021/10/13 01:21:26;;;;;;;8.70;6.47;;;8.70;99.90;;;;;;5116440;27;20267;-83
2021/10/13 01:24:32;;;;;;;7.53;5.40;;;8.70;99.90;;;;;;5110923;28;20203;-83
2021/10/13 01:27:42;;;;;;;10.13;5.32;;;8.80;99.90;;;;;;5118220;27;20212;-82
2021/10/13 01:30:16;;;;;;;9.35;5.45;;;8.80;99.90;;;;;;5076225;28;20241;-82
2021/10/13 01:32:58;;;;;;;8.52;5.80;;;8.70;99.90;;;;;;5146272;27;20184;-83
2021/10/13 01:35:27;;;;;;;7.90;5.13;;;8.80;99.90;;;;;;5136250;28;20246;-84
2021/10/13 01:38:03;;;;;;;6.53;5.75;;;8.90;99.90;;;;;;5128702;28;20234;-83
2021/10/13 01:40:32;;;;;;;6.80;4.90;;;8.80;99.90;;;;;;5137695;27;20205;-83
2021/10/13 01:43:06;;;;;;;7.30;5.00;;;8.80;99.90;;;;;;5124000;28;20216;-82
2021/10/13 01:45:44;;;;;;;8.77;5.50;;;8.80;99.90;;;;;;5139104;27;20230;-83
2021/10/13 01:48:13;;;;;;;9.43;5.25;;;8.70;99.90;;;;;;5131826;28;20209;-83
2021/10/13 01:50:46;;;;;;;9.50;5.55;;;8.60;99.90;;;;;;5134413;28;20619;-83
2021/10/13 01:53:15;;;;;;;9.30;5.80;;;8.60;99.90;;;;;;5127284;28;20197;-82
2021/10/13 01:55:45;;;;;;;9.48;6.45;;;8.50;99.90;;;;;;5124185;28;20235;-83
2021/10/13 01:58:19;;;;;;;8.90;6.13;;;8.50;99.90;;;;;;5124904;28;20275;-83
2021/10/13 02:00:58;;;;;;;10.45;6.10;;;8.40;99.90;;;;;;5134954;28;20208;-83
2021/10/13 02:03:31;;;;;;;6.60;5.35;;;8.30;99.90;;;;;;5130570;28;20200;-83
2021/10/13 02:06:07;;;;;;;10.80;6.68;;;8.30;99.90;;;;;;5126154;27;20205;-83
2021/10/13 02:08:38;;;;;;;7.45;5.38;;;8.30;99.90;;;;;;5133774;27;20236;-84
2021/10/13 02:11:11;;;;;;;12.40;6.93;;;8.30;99.90;;;;;;5125898;27;20192;-84
2021/10/13 02:14:00;;;;;;;7.60;6.30;;;8.20;99.90;;;;;;5135202;27;20204;-83
2021/10/13 02:16:31;;;;;;;8.38;6.60;;;8.20;99.90;;;;;;5125910;27;20209;-84
2021/10/13 02:19:02;;;;;;;13.25;7.00;;;8.10;99.90;;;;;;5129626;27;20270;-83
2021/10/13 02:21:31;;;;;;;11.05;8.05;;;8.10;99.90;;;;;;5130093;27;20210;-83
2021/10/13 02:23:59;;;;;;;16.85;7.97;;;8.10;99.90;;;;;;5132164;27;20696;-84
2021/10/13 02:26:35;;;;;;;12.52;7.90;;;8.00;99.90;;;;;;5135818;27;20199;-83
2021/10/13 02:29:16;;;;;;;9.85;7.75;;;8.00;99.90;;;;;;5120442;27;20381;-83
2021/10/13 02:31:49;;;;;;;11.55;7.80;;;7.90;99.90;;;;;;5124503;27;20205;-83
2021/10/13 02:34:16;;;;;;;13.02;8.20;;;7.90;99.90;;;;;;5130244;28;20234;-82
2021/10/13 02:37:20;;;;;;;10.60;7.55;;;7.80;99.90;;;;;;5131457;27;20207;-83
2021/10/13 02:39:47;;;;;;;10.25;9.13;;;7.80;99.90;;;;;;5128119;27;20220;-83
2021/10/13 02:42:24;;;;;;;12.25;8.30;;;7.80;99.90;;;;;;5133436;28;20212;-82
2021/10/13 02:44:52;;;;;;;12.05;8.55;;;7.70;99.90;;;;;;5132158;27;20658;-83
2021/10/13 02:47:31;;;;;;;13.65;9.10;;;7.70;99.90;;;;;;5143164;27;20262;-83
2021/10/13 02:50:23;;;;;;;20.67;10.38;;;7.70;99.90;;;;;;5136707;27;20227;-83
2021/10/13 02:53:01;;;;;;;12.18;8.82;;;7.70;99.90;;;;;;5134227;27;20211;-84
2021/10/13 02:55:33;;;;;;;14.50;8.20;;;7.70;99.90;;;;;;5133439;27;20804;-83
2021/10/13 02:58:07;;;;;;;13.40;9.05;;;7.60;99.90;;;;;;5128485;27;20677;-82
2021/10/13 03:00:36;;;;;;;14.00;9.30;;;7.70;99.90;;;;;;5119606;27;20212;-82
2021/10/13 03:03:09;;;;;;;10.75;9.60;;;7.70;99.90;;;;;;5102327;28;20210;-83
2021/10/13 03:05:37;;;;;;;13.63;9.23;;;7.60;99.90;;;;;;5128128;27;20275;-83
2021/10/13 03:08:08;;;;;;;14.57;9.90;;;7.60;99.90;;;;;;5136993;27;20192;-83
2021/10/13 03:10:37;;;;;;;15.18;9.98;;;7.50;99.90;;;;;;5128036;27;20204;-83
2021/10/13 03:13:25;;;;;;;10.80;9.40;;;7.50;99.90;;;;;;5130113;27;20216;-83
2021/10/13 03:15:54;;;;;;;12.43;10.75;;;7.60;99.90;;;;;;5138332;27;20232;-83
2021/10/13 03:18:24;;;;;;;16.27;11.27;;;7.50;99.90;;;;;;5139604;27;20225;-83
2021/10/13 03:20:52;;;;;;;21.83;10.43;;;7.50;99.90;;;;;;5135011;27;20455;-83
2021/10/13 03:23:31;;;;;;;13.27;9.15;;;7.50;99.90;;;;;;5144481;27;20215;-83
2021/10/13 03:26:33;;;;;;;14.63;8.80;;;7.50;99.90;;;;;;5128987;27;20618;-83
2021/10/13 03:29:12;;;;;;;13.18;9.40;;;7.50;99.90;;;;;;5138524;27;20288;-83
2021/10/13 03:31:54;;;;;;;10.07;9.07;;;7.50;99.90;;;;;;5130573;27;20231;-83
2021/10/13 03:35:02;;;;;;;11.88;9.68;;;7.50;99.90;;;;;;5125677;28;20199;-83
2021/10/13 03:37:34;;;;;;;16.60;10.50;;;7.50;99.90;;;;;;5131875;28;20214;-83
2021/10/13 03:40:01;;;;;;;18.75;12.32;;;7.40;99.90;;;;;;5125277;28;20213;-83
2021/10/13 03:42:28;;;;;;;21.35;11.15;;;7.40;99.90;;;;;;5121969;27;20207;-83
2021/10/13 03:44:56;;;;;;;15.68;9.80;;;7.40;99.90;;;;;;5125948;27;20206;-82
2021/10/13 03:47:23;;;;;;;13.65;12.25;;;7.40;99.90;;;;;;5130576;27;20246;-83
2021/10/13 03:49:51;;;;;;;12.32;10.45;;;7.40;99.90;;;;;;5130459;27;20229;-83
2021/10/13 03:52:18;;;;;;;13.70;10.52;;;7.40;99.90;;;;;;5120022;27;20204;-84
2021/10/13 03:54:45;;;;;;;13.10;11.60;;;7.40;99.90;;;;;;5115496;27;20224;-82
2021/10/13 03:57:12;;;;;;;13.73;10.60;;;7.40;99.90;;;;;;5121278;27;20224;-84
2021/10/13 03:59:39;;;;;;;15.50;10.23;;;7.40;99.90;;;;;;5113083;28;20235;-83
2021/10/13 04:02:07;;;;;;;15.90;11.10;;;7.50;99.90;;;;;;5124851;27;20225;-84
2021/10/13 04:04:34;;;;;;;17.02;9.90;;;7.40;99.90;;;;;;5126494;27;20200;-83
2021/10/13 04:07:02;;;;;;;11.38;9.50;;;7.40;99.90;;;;;;5119400;27;20238;-82
2021/10/13 04:09:29;;;;;;;12.98;10.40;;;7.40;99.90;;;;;;5114635;27;20230;-83
2021/10/13 04:11:56;;;;;;;12.80;10.25;;;7.40;99.90;;;;;;5120998;27;20212;-83
2021/10/13 04:14:24;;;;;;;13.07;11.38;;;7.40;99.90;;;;;;5115584;27;20211;-83
2021/10/13 04:16:51;;;;;;;13.93;10.70;;;7.40;99.90;;;;;;5120640;28;20200;-83
2021/10/13 04:19:18;;;;;;;13.38;11.73;;;7.30;99.90;;;;;;5127481;27;20220;-83
2021/10/13 04:21:45;;;;;;;11.70;9.70;;;7.30;99.90;;;;;;5141937;27;20251;-82
2021/10/13 04:24:14;;;;;;;13.52;12.18;;;7.20;99.90;;;;;;5125433;27;20295;-83
2021/10/13 04:26:41;;;;;;;15.32;10.32;;;7.20;99.90;;;;;;5123653;28;20210;-83
2021/10/13 04:29:08;;;;;;;13.27;11.88;;;7.20;99.90;;;;;;5116518;27;20224;-83
2021/10/13 04:31:35;;;;;;;14.35;11.32;;;7.20;99.90;;;;;;5119179;28;20214;-83
2021/10/13 04:34:02;;;;;;;11.60;9.45;;;7.10;99.90;;;;;;5122507;27;20204;-83
2021/10/13 04:36:29;;;;;;;13.55;9.60;;;7.10;99.90;;;;;;5129179;27;20745;-83
2021/10/13 04:38:56;;;;;;;13.70;10.98;;;7.10;99.90;;;;;;5120344;28;20281;-83
2021/10/13 04:41:25;;;;;;;14.32;11.02;;;7.10;99.90;;;;;;5129113;27;20210;-83
2021/10/13 04:43:52;;;;;;;14.32;12.13;;;7.10;99.90;;;;;;5134621;28;20206;-83
2021/10/13 04:46:20;;;;;;;12.27;9.00;;;7.20;99.90;;;;;;5153022;27;20202;-82
2021/10/13 04:48:47;;;;;;;14.50;9.60;;;7.20;99.90;;;;;;5138965;28;20207;-81
2021/10/13 04:51:14;;;;;;;12.23;9.57;;;7.20;99.90;;;;;;5132790;28;20261;-83
2021/10/13 04:53:41;;;;;;;12.20;9.10;;;7.10;99.90;;;;;;5130713;28;20199;-83
2021/10/13 04:56:08;;;;;;;11.45;10.20;;;7.10;99.90;;;;;;5130147;27;20236;-82
2021/10/13 04:58:36;;;;;;;12.63;9.88;;;7.10;99.90;;;;;;5133066;28;20286;-83
2021/10/13 05:01:04;;;;;;;12.00;10.80;;;7.10;99.90;;;;;;5136634;27;20211;-84
2021/10/13 05:03:31;;;;;;;15.80;9.75;;;7.00;99.90;;;;;;5135668;27;20195;-84
2021/10/13 05:05:58;;;;;;;12.98;11.25;;;6.90;99.90;;;;;;5126002;27;20288;-84
2021/10/13 05:08:25;;;;;;;17.50;10.35;;;6.90;99.90;;;;;;5126892;27;20241;-82
2021/10/13 05:10:52;;;;;;;12.77;10.35;;;6.90;99.90;;;;;;5128542;27;20258;-83
2021/10/13 05:13:20;;;;;;;17.17;11.00;;;7.00;99.90;;;;;;5131411;27;20190;-83
2021/10/13 05:15:48;;;;;;;14.57;11.80;;;7.00;99.90;;;;;;5138647;28;20230;-84
2021/10/13 05:18:16;;;;;;;16.35;11.20;;;7.00;99.90;;;;;;5130304;28;20185;-84
2021/10/13 05:20:44;;;;;;;15.93;10.88;;;7.00;99.90;;;;;;5136884;27;20190;-84
2021/10/13 05:23:12;;;;;;;16.10;10.85;;;7.00;99.90;;;;;;5117814;28;20234;-84
2021/10/13 05:25:45;;;;;;;15.43;11.18;;;7.00;99.90;;;;;;5125983;27;20217;-84
2021/10/13 05:28:27;;;;;;;13.40;9.55;;;7.00;99.90;;;;;;5112342;28;20220;-84
2021/10/13 05:31:00;;;;;;;16.88;10.30;;;7.00;99.90;;;;;;5112784;27;20596;-83
2021/10/13 05:40:22;;;;;;;11.90;10.63;;;7.00;99.90;;;;;;5062208;28;20243;-84
2021/10/13 05:42:49;;;;;;;13.85;11.30;;;7.00;99.90;;;;;;5130260;27;20203;-83
2021/10/13 05:48:59;;;;;;;12.00;10.15;;;7.00;99.90;;;;;;5107986;28;20240;-83
2021/10/13 05:51:48;;;;;;;14.82;10.20;;;7.00;99.90;;;;;;5118697;28;20206;-83
2021/10/13 05:54:52;;;;;;;13.45;10.88;;;7.00;99.90;;;;;;5105296;28;20207;-83
2021/10/13 06:00:46;;;;;;;16.88;10.63;;;7.10;99.90;;;;;;5066611;28;20209;-83
2021/10/13 06:03:13;;;;;;;12.00;9.15;;;7.20;99.90;;;;;;5119152;28;20297;-83
2021/10/13 06:05:52;;;;;;;13.68;10.43;;;7.20;99.90;;;;;;5116109;28;20211;-83
2021/10/13 06:08:24;;;;;;;13.63;9.32;;;7.30;99.90;;;;;;5127135;28;20226;-83
2021/10/13 06:14:54;;;;;;;10.57;7.78;;;7.30;99.90;;;;;;5058893;28;20244;-83
2021/10/13 06:17:53;;;;;;;10.40;8.60;;;7.40;99.90;;;;;;5060676;28;20969;-83
2021/10/13 06:20:20;;;;;;;10.75;9.30;;;7.40;99.90;;;;;;5043364;28;20222;-82
2021/10/13 06:22:54;;;;;;;12.07;8.50;;;7.50;99.90;;;;;;5057784;28;20207;-83
2021/10/13 06:25:21;;;;;;;11.07;8.40;;;7.50;99.90;;;;;;5081479;28;20226;-83
2021/10/13 06:27:48;;;;;;;14.15;8.85;;;7.50;99.90;;;;;;5111686;28;20664;-83
2021/10/13 06:30:16;;;;;;;15.43;8.98;;;7.50;99.90;;;;;;5122175;28;20227;-83
2021/10/13 06:32:43;;;;;;;9.27;7.75;;;7.50;99.90;;;;;;5119031;28;20283;-82
2021/10/13 06:35:10;;;;;;;11.40;8.43;;;7.60;99.90;;;;;;5121752;28;20196;-83
2021/10/13 06:37:37;;;;;;;12.73;8.30;;;7.80;99.90;;;;;;5117846;28;20207;-83
2021/10/13 06:40:07;;;;;;;12.30;8.73;;;7.80;99.90;;;;;;5121680;28;20227;-83
2021/10/13 06:42:34;;;;;;;11.07;8.40;;;7.90;99.90;;;;;;5116294;28;20215;-82
2021/10/13 06:45:02;;;;;;;11.02;7.70;;;8.10;99.90;;;;;;5137013;28;20185;-82
2021/10/13 06:47:36;;;;;;;8.18;5.80;;;8.10;99.90;;;;;;5133174;28;20188;-82
2021/10/13 06:50:05;;;;;;;8.00;6.90;;;8.30;99.90;;;;;;5133669;28;20231;-82
2021/10/13 06:52:32;;;;;;;9.00;6.47;;;8.70;99.90;;;;;;5138363;28;20249;-84
2021/10/13 06:54:59;;;;;;;7.70;4.25;;;9.50;99.90;;;;;;5124810;28;20296;-84
2021/10/13 06:57:27;;;;;;;7.55;4.15;;;10.00;99.90;;;;;;5120957;28;20576;-84
2021/10/13 07:00:01;;;;;;;6.10;3.65;;;10.60;99.90;;;;;;5118461;28;20295;-83
2021/10/13 07:02:28;;;;;;;6.47;3.72;;;11.60;99.90;;;;;;5116837;28;20274;-84
2021/10/13 07:04:57;;;;;;;6.63;4.10;;;12.50;99.90;;;;;;5123452;28;20217;-84
2021/10/13 07:07:37;;;;;;;7.20;3.53;;;13.10;99.90;;;;;;5117616;28;20680;-83
2021/10/13 07:10:04;;;;;;;7.43;3.45;;;13.70;99.90;;;;;;5126195;27;20221;-83
2021/10/13 07:12:35;;;;;;;4.30;3.47;;;14.30;99.90;;;;;;5134849;27;20220;-83
2021/10/13 07:15:02;;;;;;;6.60;3.80;;;14.60;99.90;;;;;;5125508;27;20198;-83
2021/10/13 07:17:30;;;;;;;7.25;3.55;;;14.40;99.90;;;;;;5130064;27;20222;-84
2021/10/13 07:19:59;;;;;;;10.38;4.85;;;13.70;99.90;;;;;;5129036;27;20224;-83
2021/10/13 07:22:27;;;;;;;9.15;4.80;;;13.10;99.90;;;;;;5126487;27;20226;-83
2021/10/13 07:24:55;;;;;;;5.20;4.20;;;12.40;99.90;;;;;;5126177;27;20212;-83
2021/10/13 07:27:22;;;;;;;6.03;3.88;;;11.70;99.90;;;;;;5123369;27;20270;-84
2021/10/13 07:29:57;;;;;;;8.32;4.50;;;11.30;99.90;;;;;;5145823;27;20223;-83
2021/10/13 07:32:24;;;;;;;8.35;3.88;;;11.00;99.90;;;;;;5135210;27;20209;-83
2021/10/13 07:34:51;;;;;;;8.80;5.38;;;10.90;99.90;;;;;;5142215;27;20205;-84
2021/10/13 07:37:19;;;;;;;7.13;3.33;;;10.90;99.90;;;;;;5150183;27;20243;-84
2021/10/13 07:39:47;;;;;;;21.20;5.00;;;10.80;99.90;;;;;;5155373;27;20217;-84
2021/10/13 07:42:15;;;;;;;17.05;4.07;;;11.00;99.90;;;;;;5122214;28;20192;-83
2021/10/13 07:44:43;;;;;;;6.80;4.20;;;11.20;99.90;;;;;;5120311;28;20190;-83
2021/10/13 07:47:11;;;;;;;7.65;3.92;;;11.40;99.90;;;;;;5124745;27;20183;-82
2021/10/13 07:49:40;;;;;;;8.27;5.07;;;11.70;99.90;;;;;;5150276;27;20214;-83
2021/10/13 07:52:08;;;;;;;6.43;3.38;;;11.90;99.90;;;;;;5144145;27;20238;-83
2021/10/13 07:54:35;;;;;;;6.32;3.63;;;12.00;99.90;;;;;;5147335;27;20259;-83
2021/10/13 07:57:02;;;;;;;11.23;3.97;;;12.10;99.90;;;;;;5144668;27;20212;-83
2021/10/13 07:59:32;;;;;;;5.03;3.63;;;12.50;99.90;;;;;;5141908;27;20220;-84
2021/10/13 08:01:59;;;;;;;4.28;3.28;;;13.10;99.90;;;;;;5147053;27;20202;-84
2021/10/13 08:04:28;;;;;;;6.45;3.90;;;13.10;99.90;;;;;;5131512;27;20675;-84
2021/10/13 08:06:55;;;;;;;5.03;3.33;;;12.90;99.90;;;;;;5126646;27;20205;-83
2021/10/13 08:09:22;;;;;;;7.60;3.30;;;13.00;99.90;;;;;;5123869;27;20232;-83
2021/10/13 08:11:50;;;;;;;10.45;3.60;;;13.80;99.90;;;;;;5126226;27;20210;-83
2021/10/13 08:14:18;;;;;;;6.30;3.05;;;14.70;99.90;;;;;;5129287;27;20204;-83
2021/10/13 08:16:46;;;;;;;8.20;3.37;;;15.70;99.90;;;;;;5125019;27;20227;-84
2021/10/13 08:20:01;;;;;;;8.20;2.53;;;16.20;99.90;;;;;;5122094;27;20485;-82
2021/10/13 08:22:57;;;;;;;9.40;3.40;;;16.20;99.90;;;;;;5147288;27;20456;-83
2021/10/13 08:25:24;;;;;;;6.50;3.00;;;16.60;99.90;;;;;;5147847;27;20503;-83
2021/10/13 08:27:51;;;;;;;3.85;2.53;;;16.40;99.90;;;;;;5137099;28;20457;-83
2021/10/13 08:30:18;;;;;;;7.75;3.40;;;15.80;99.90;;;;;;5138434;28;20225;-83
2021/10/13 08:32:46;;;;;;;4.60;3.78;;;15.30;99.90;;;;;;5141314;27;20191;-83
2021/10/13 08:35:13;;;;;;;16.38;3.90;;;14.70;99.90;;;;;;5147748;27;20193;-82
2021/10/13 08:37:40;;;;;;;8.45;3.92;;;14.20;99.90;;;;;;5138162;28;20236;-84
2021/10/13 08:40:11;;;;;;;7.53;4.15;;;13.80;99.90;;;;;;5146579;27;20217;-83
2021/10/13 08:42:52;;;;;;;9.73;3.95;;;13.50;99.90;;;;;;5158388;27;20234;-83
2021/10/13 08:45:19;;;;;;;7.10;3.97;;;13.20;99.90;;;;;;5154626;27;20180;-84
2021/10/13 08:47:47;;;;;;;6.93;3.75;;;12.90;99.90;;;;;;5130831;27;20578;-83
2021/10/13 08:50:14;;;;;;;7.90;4.40;;;12.70;99.90;;;;;;5135129;27;20219;-83
2021/10/13 08:52:41;;;;;;;9.75;3.72;;;12.60;99.90;;;;;;5131412;27;20214;-84
2021/10/13 08:55:12;;;;;;;5.55;4.22;;;12.40;99.90;;;;;;5126714;27;20215;-82
2021/10/13 08:57:39;;;;;;;8.02;3.92;;;12.30;99.90;;;;;;5120640;27;20271;-83
2021/10/13 09:00:08;;;;;;;7.55;3.33;;;12.30;99.90;;;;;;5120939;27;20234;-83
2021/10/13 09:02:40;;;;;;;16.55;3.92;;;12.40;99.90;;;;;;5118353;28;20210;-84
2021/10/13 09:05:13;;;;;;;11.02;4.20;;;12.40;99.90;;;;;;5119100;28;20212;-83
2021/10/13 09:07:47;;;;;;;5.22;3.35;;;12.40;99.90;;;;;;5107366;28;20204;-83
2021/10/13 09:10:16;;;;;;;6.50;3.45;;;12.40;99.90;;;;;;5112072;28;20233;-84
2021/10/13 09:12:54;;;;;;;5.78;3.55;;;12.50;99.90;;;;;;5118435;28;20201;-83
2021/10/13 09:15:25;;;;;;;4.93;3.28;;;12.60;99.90;;;;;;5122415;28;20199;-84
2021/10/13 09:17:55;;;;;;;7.10;3.00;;;12.60;99.90;;;;;;5115199;28;20747;-84
2021/10/13 09:20:24;;;;;;;7.72;3.88;;;12.60;99.90;;;;;;5121414;28;20227;-84
2021/10/13 09:23:06;;;;;;;3.38;2.75;;;12.50;99.90;;;;;;5118321;28;20210;-83
2021/10/13 09:25:36;;;;;;;7.10;3.33;;;12.70;99.90;;;;;;5117728;28;20191;-84
2021/10/13 09:28:04;;;;;;;5.10;2.90;;;13.00;99.90;;;;;;5116291;28;20203;-84
2021/10/13 09:30:33;;;;;;;6.63;2.55;;;13.20;99.90;;;;;;5118819;28;20237;-84
2021/10/13 09:33:13;;;;;;;8.60;3.05;;;13.60;99.90;;;;;;5122117;27;20201;-84
2021/10/13 09:35:46;;;;;;;6.15;2.90;;;14.20;99.90;;;;;;5137541;27;20646;-84
2021/10/13 09:38:16;;;;;;;3.23;2.43;;;15.20;99.90;;;;;;5129121;27;20287;-83
2021/10/13 09:40:46;;;;;;;5.65;3.42;;;15.90;99.90;;;;;;5114019;28;20447;-84
2021/10/13 09:43:36;;;;;;;4.20;2.90;;;16.00;99.90;;;;;;5113587;28;20201;-85
2021/10/13 09:46:08;;;;;;;5.23;2.57;;;16.20;99.90;;;;;;5121554;28;20454;-84
2021/10/13 09:48:37;;;;;;;11.48;2.95;;;16.10;99.90;;;;;;5115358;27;20475;-84
2021/10/13 09:51:19;;;;;;;7.78;3.38;;;16.10;99.90;;;;;;5127139;27;20222;-84
2021/10/13 09:54:08;;;;;;;6.28;2.28;;;15.70;99.90;;;;;;5120534;28;20208;-84
2021/10/13 09:56:37;;;;;;;7.85;1.67;;;15.70;99.90;;;;;;5120678;28;20227;-84
2021/10/13 09:59:10;;;;;;;8.48;2.15;;;16.10;99.90;;;;;;5120933;28;20213;-84
2021/10/13 10:01:38;;;;;;;11.00;3.30;;;16.60;99.90;;;;;;5117013;28;20407;-84
2021/10/13 10:04:07;;;;;;;10.23;3.53;;;16.90;99.90;;;;;;5114329;27;20514;-84
2021/10/13 10:06:35;;;;;;;9.55;3.50;;;16.80;99.90;;;;;;5120477;28;20200;-83
2021/10/13 10:09:04;;;;;;;10.55;4.45;;;16.40;99.90;;;;;;5112020;28;20219;-84
2021/10/13 10:11:33;;;;;;;6.25;2.88;;;16.00;99.90;;;;;;5127869;28;20571;-84
2021/10/13 10:14:03;;;;;;;9.40;4.68;;;15.50;99.90;;;;;;5123106;28;20214;-84
2021/10/13 10:16:31;;;;;;;6.47;3.50;;;15.10;99.90;;;;;;5126095;28;20197;-84
2021/10/13 10:19:21;;;;;;;6.13;3.97;;;14.90;99.90;;;;;;5120960;28;20221;-84
2021/10/13 10:21:54;;;;;;;11.10;4.15;;;14.70;99.90;;;;;;5127840;27;20206;-84
2021/10/13 10:24:26;;;;;;;12.40;4.18;;;14.50;99.90;;;;;;5129159;27;20215;-84
2021/10/13 10:26:54;;;;;;;9.02;3.97;;;14.50;99.90;;;;;;5117625;27;20202;-84
2021/10/13 10:29:51;;;;;;;5.05;3.10;;;14.40;99.90;;;;;;5123151;27;20700;-84
2021/10/13 10:32:26;;;;;;;5.47;3.30;;;14.20;99.90;;;;;;5114963;27;20214;-84
2021/10/13 10:35:24;;;;;;;8.60;4.97;;;14.10;99.90;;;;;;5134097;27;20176;-84
2021/10/13 10:37:54;;;;;;;7.38;3.90;;;14.00;99.90;;;;;;5133355;27;20220;-83
2021/10/13 10:40:22;;;;;;;4.70;3.67;;;14.00;99.90;;;;;;5124094;28;20229;-84
2021/10/13 10:42:55;;;;;;;5.32;3.40;;;14.00;99.90;;;;;;5127899;27;20212;-84
2021/10/13 10:45:26;;;;;;;10.27;4.97;;;14.00;99.90;;;;;;5125577;27;20201;-84
2021/10/13 10:48:15;;;;;;;5.75;2.75;;;14.00;99.90;;;;;;5124862;27;20225;-84
2021/10/13 10:50:58;;;;;;;4.47;2.67;;;14.20;99.90;;;;;;5129310;27;20193;-84
2021/10/13 10:53:29;;;;;;;7.65;2.80;;;14.20;99.90;;;;;;5135198;27;20197;-84
2021/10/13 10:55:59;;;;;;;8.38;3.58;;;14.20;99.90;;;;;;5124355;28;20202;-84
2021/10/13 10:58:28;;;;;;;13.63;3.40;;;14.20;99.90;;;;;;5115575;27;20214;-84
2021/10/13 11:01:17;;;;;;;5.22;3.22;;;14.10;99.90;;;;;;5108750;28;20252;-84
2021/10/13 11:03:44;;;;;;;6.85;3.83;;;14.10;99.90;;;;;;5106716;28;20229;-84
2021/10/13 11:06:14;;;;;;;5.07;3.70;;;14.20;99.90;;;;;;5112739;27;20197;-84
2021/10/13 11:08:59;;;;;;;9.60;3.50;;;14.30;99.90;;;;;;5116814;27;20216;-84
2021/10/13 11:11:28;;;;;;;11.95;3.47;;;14.40;99.90;;;;;;5121886;27;20276;-83
2021/10/13 11:14:01;;;;;;;9.30;3.80;;;14.50;99.90;;;;;;5113661;28;20213;-83
2021/10/13 11:16:30;;;;;;;4.63;2.95;;;14.60;99.90;;;;;;5120280;27;20225;-83
2021/10/13 11:19:12;;;;;;;6.72;3.00;;;14.60;99.90;;;;;;5116100;27;20231;-83
2021/10/13 11:22:00;;;;;;;4.88;3.25;;;14.50;99.90;;;;;;5120161;27;20225;-83
2021/10/13 11:24:28;;;;;;;7.50;3.55;;;14.60;99.90;;;;;;5120716;27;20212;-84
2021/10/13 11:26:55;;;;;;;5.45;3.63;;;14.80;99.90;;;;;;5131196;27;20193;-84
2021/10/13 11:29:24;;;;;;;4.18;3.08;;;14.90;99.90;;;;;;5143295;27;20220;-84
2021/10/13 11:32:04;;;;;;;6.90;3.58;;;14.90;99.90;;;;;;5136165;28;20196;-84
2021/10/13 11:34:31;;;;;;;5.40;2.85;;;14.90;99.90;;;;;;5127807;28;20209;-84
2021/10/13 11:36:58;;;;;;;4.88;2.60;;;15.10;99.90;;;;;;5145912;27;20244;-84
2021/10/13 11:39:28;;;;;;;6.63;3.38;;;15.10;99.90;;;;;;5133327;28;20237;-84
2021/10/13 11:41:57;;;;;;;5.40;3.58;;;15.10;99.90;;;;;;5137431;28;20201;-83
2021/10/13 11:44:26;;;;;;;4.80;3.50;;;15.10;99.90;;;;;;5140069;28;20186;-83
2021/10/13 11:47:01;;;;;;;6.95;2.90;;;15.20;99.90;;;;;;5129393;28;20181;-83
2021/10/13 11:49:28;;;;;;;9.63;3.95;;;15.10;99.90;;;;;;5127018;28;20229;-84
2021/10/13 11:52:10;;;;;;;4.93;3.05;;;14.90;99.90;;;;;;5139951;27;20271;-84
2021/10/13 11:54:37;;;;;;;15.20;5.68;;;14.80;99.90;;;;;;5131894;28;20235;-84
2021/10/13 11:57:06;;;;;;;7.30;3.75;;;14.70;99.90;;;;;;5134916;28;20229;-82
2021/10/13 11:59:34;;;;;;;4.10;2.85;;;14.50;99.90;;;;;;5137146;28;20215;-84
2021/10/13 12:05:10;;;;;;;8.90;4.63;;;14.40;99.90;;;;;;5103863;27;20205;-85
2021/10/13 12:07:42;;;;;;;4.35;3.00;;;14.30;99.90;;;;;;5131171;27;20205;-84
2021/10/13 12:10:10;;;;;;;3.95;3.15;;;14.30;99.90;;;;;;5124035;27;20219;-84
2021/10/13 12:12:37;;;;;;;7.93;3.20;;;14.40;99.90;;;;;;5130318;27;20594;-84
2021/10/13 12:15:18;;;;;;;4.28;2.45;;;14.50;99.90;;;;;;5128041;27;20198;-84
2021/10/13 12:17:46;;;;;;;6.97;2.90;;;14.70;99.90;;;;;;5121248;27;20228;-84
2021/10/13 12:20:19;;;;;;;6.57;2.63;;;14.80;99.90;;;;;;5129642;27;20292;-84
2021/10/13 12:22:49;;;;;;;4.70;2.90;;;14.90;99.90;;;;;;5128911;27;20206;-85
2021/10/13 12:25:27;;;;;;;4.60;3.10;;;15.00;99.90;;;;;;5120002;27;20213;-85
2021/10/13 12:27:55;;;;;;;6.53;2.53;;;15.10;99.90;;;;;;5129703;27;20281;-84
2021/10/13 12:30:31;;;;;;;6.15;2.80;;;15.20;99.90;;;;;;5128053;27;20217;-85
2021/10/13 12:33:04;;;;;;;4.10;2.80;;;15.30;99.90;;;;;;5125397;27;20185;-84
2021/10/13 12:35:31;;;;;;;3.67;2.03;;;15.20;99.90;;;;;;5134877;27;20201;-85
2021/10/13 12:38:01;;;;;;;4.10;2.60;;;15.20;99.90;;;;;;5108952;28;20225;-84
2021/10/13 12:40:28;;;;;;;7.65;2.60;;;15.30;99.90;;;;;;5124458;27;20300;-85
2021/10/13 12:42:56;;;;;;;7.38;2.53;;;15.40;99.90;;;;;;5125739;27;20201;-84
2021/10/13 12:45:24;;;;;;;3.42;2.13;;;15.40;99.90;;;;;;5135520;27;20270;-84
2021/10/13 12:48:11;;;;;;;5.03;2.40;;;15.40;99.90;;;;;;5130430;27;20210;-85
2021/10/13 12:50:40;;;;;;;6.20;2.28;;;15.40;99.90;;;;;;5140887;27;20206;-83
2021/10/13 12:53:07;;;;;;;3.65;2.00;;;15.40;99.90;;;;;;5139619;27;20189;-84
2021/10/13 12:55:34;;;;;;;3.35;1.83;;;15.20;99.90;;;;;;5142806;27;20237;-84
2021/10/13 12:58:01;;;;;;;3.38;1.70;;;15.20;99.90;;;;;;5130191;27;20225;-84
2021/10/13 13:00:28;;;;;;;3.42;1.60;;;15.20;99.90;;;;;;5121912;27;20202;-84
2021/10/13 13:02:56;;;;;;;5.35;2.10;;;15.10;99.90;;;;;;5121487;27;20202;-84
2021/10/13 13:05:23;;;;;;;8.43;2.55;;;15.00;99.90;;;;;;5138549;27;20200;-83
2021/10/13 13:07:52;;;;;;;4.53;2.35;;;15.00;99.90;;;;;;5119732;27;20296;-84
2021/10/13 13:10:19;;;;;;;3.33;2.80;;;15.00;99.90;;;;;;5126318;27;20248;-84
2021/10/13 13:12:46;;;;;;;6.07;2.78;;;15.00;99.90;;;;;;5115486;27;20246;-84
2021/10/13 13:15:14;;;;;;;6.47;2.15;;;14.90;99.90;;;;;;5135050;27;20268;-84
2021/10/13 13:17:41;;;;;;;3.67;1.60;;;14.90;99.90;;;;;;5128026;27;20213;-84
2021/10/13 13:20:09;;;;;;;8.15;2.60;;;14.90;99.90;;;;;;5133841;27;20225;-84
2021/10/13 13:22:36;;;;;;;6.15;1.80;;;14.80;99.90;;;;;;5123494;27;20287;-84
2021/10/13 13:25:05;;;;;;;4.55;1.88;;;14.70;99.90;;;;;;5118432;27;20280;-84
2021/10/13 13:27:32;;;;;;;4.32;2.22;;;14.70;99.90;;;;;;5119749;27;20198;-84
2021/10/13 13:29:59;;;;;;;3.17;1.90;;;14.60;99.90;;;;;;5128256;27;20221;-84
2021/10/13 13:32:26;;;;;;;2.75;2.13;;;14.80;99.90;;;;;;5115801;27;20676;-84
2021/10/13 13:34:54;;;;;;;4.93;2.30;;;14.80;99.90;;;;;;5122056;27;20208;-84
2021/10/13 13:37:21;;;;;;;4.10;2.25;;;14.80;99.90;;;;;;5122569;27;20570;-84